WGA weather

Wagga Wagga City Airport
Wagga Wagga, New South Wales, Australia

Public forecast

Using degrees Celsius for public forecast. Weather courtesy of forecast.io.

Current aviation weather report (METAR) for Wagga Wagga City Airport

Retrieved 2020/01/29 04:00 UTC (21 minutes ago):

YSWG 290400Z AUTO 23013KT 9999 // NCD 36/01 Q1013

Aviation forecast (TAF) for Wagga Wagga City Airport

Forecast is more than 12 hours old.

Retrieved 2018/05/25 18:03 UTC (2 years ago):

TAF YSWG 251649Z 2518/2608 07008KT CAVOK